sensor_id;sensor_type;location;lat;lon;timestamp;P1;durP1;ratioP1;P2;durP2;ratioP2
64868;SDS011;51349;52.424;10.840;2023-05-07T00:04:31;7.88;;;7.18;;
64868;SDS011;51349;52.424;10.840;2023-05-07T00:09:36;7.28;;;6.68;;
64868;SDS011;51349;52.424;10.840;2023-05-07T00:14:37;6.95;;;6.35;;
64868;SDS011;51349;52.424;10.840;2023-05-07T00:19:38;6.68;;;6.07;;
64868;SDS011;51349;52.424;10.840;2023-05-07T00:24:38;7.72;;;7.03;;
64868;SDS011;51349;52.424;10.840;2023-05-07T00:29:39;7.18;;;6.47;;
64868;SDS011;51349;52.424;10.840;2023-05-07T00:34:40;6.80;;;6.13;;
64868;SDS011;51349;52.424;10.840;2023-05-07T00:39:40;7.50;;;6.90;;
64868;SDS011;51349;52.424;10.840;2023-05-07T00:44:41;8.00;;;7.30;;
64868;SDS011;51349;52.424;10.840;2023-05-07T00:49:42;8.07;;;7.27;;
64868;SDS011;51349;52.424;10.840;2023-05-07T00:54:44;9.77;;;8.15;;
64868;SDS011;51349;52.424;10.840;2023-05-07T00:59:45;8.45;;;7.53;;
64868;SDS011;51349;52.424;10.840;2023-05-07T01:04:45;7.13;;;6.53;;
64868;SDS011;51349;52.424;10.840;2023-05-07T01:09:46;7.47;;;6.78;;
64868;SDS011;51349;52.424;10.840;2023-05-07T01:14:47;7.30;;;6.65;;
64868;SDS011;51349;52.424;10.840;2023-05-07T01:19:49;8.48;;;7.68;;
64868;SDS011;51349;52.424;10.840;2023-05-07T01:24:50;7.78;;;7.00;;
64868;SDS011;51349;52.424;10.840;2023-05-07T01:29:51;6.93;;;6.32;;
64868;SDS011;51349;52.424;10.840;2023-05-07T01:34:52;7.28;;;6.65;;
64868;SDS011;51349;52.424;10.840;2023-05-07T01:39:54;7.95;;;7.20;;
64868;SDS011;51349;52.424;10.840;2023-05-07T01:44:55;8.73;;;8.00;;
64868;SDS011;51349;52.424;10.840;2023-05-07T01:49:56;8.07;;;7.27;;
64868;SDS011;51349;52.424;10.840;2023-05-07T01:54:58;7.47;;;6.88;;
64868;SDS011;51349;52.424;10.840;2023-05-07T01:59:58;8.27;;;7.57;;
64868;SDS011;51349;52.424;10.840;2023-05-07T02:04:59;9.30;;;8.50;;
64868;SDS011;51349;52.424;10.840;2023-05-07T02:10:01;8.98;;;8.20;;
64868;SDS011;51349;52.424;10.840;2023-05-07T02:15:02;9.27;;;8.37;;
64868;SDS011;51349;52.424;10.840;2023-05-07T02:20:03;8.60;;;7.80;;
64868;SDS011;51349;52.424;10.840;2023-05-07T02:25:04;9.73;;;8.53;;
64868;SDS011;51349;52.424;10.840;2023-05-07T02:30:05;8.77;;;7.97;;
64868;SDS011;51349;52.424;10.840;2023-05-07T02:35:07;9.05;;;8.25;;
64868;SDS011;51349;52.424;10.840;2023-05-07T02:40:08;9.55;;;8.75;;
64868;SDS011;51349;52.424;10.840;2023-05-07T02:45:09;9.60;;;8.80;;
64868;SDS011;51349;52.424;10.840;2023-05-07T02:50:10;9.73;;;8.93;;
64868;SDS011;51349;52.424;10.840;2023-05-07T02:55:11;9.95;;;9.00;;
64868;SDS011;51349;52.424;10.840;2023-05-07T03:00:15;9.70;;;8.90;;
64868;SDS011;51349;52.424;10.840;2023-05-07T03:05:17;10.23;;;9.25;;
64868;SDS011;51349;52.424;10.840;2023-05-07T03:10:18;10.10;;;9.10;;
64868;SDS011;51349;52.424;10.840;2023-05-07T03:15:19;9.83;;;8.93;;
64868;SDS011;51349;52.424;10.840;2023-05-07T03:20:19;9.63;;;8.82;;
64868;SDS011;51349;52.424;10.840;2023-05-07T03:25:20;9.03;;;8.23;;
64868;SDS011;51349;52.424;10.840;2023-05-07T03:30:21;8.95;;;8.13;;
64868;SDS011;51349;52.424;10.840;2023-05-07T03:35:21;8.73;;;7.93;;
64868;SDS011;51349;52.424;10.840;2023-05-07T03:40:22;8.50;;;7.70;;
64868;SDS011;51349;52.424;10.840;2023-05-07T03:45:23;7.53;;;7.00;;
64868;SDS011;51349;52.424;10.840;2023-05-07T03:50:23;7.50;;;6.90;;
64868;SDS011;51349;52.424;10.840;2023-05-07T03:55:24;8.67;;;7.87;;
64868;SDS011;51349;52.424;10.840;2023-05-07T04:00:25;8.57;;;7.87;;
64868;SDS011;51349;52.424;10.840;2023-05-07T04:05:26;8.80;;;8.07;;
64868;SDS011;51349;52.424;10.840;2023-05-07T04:10:27;8.73;;;8.03;;
64868;SDS011;51349;52.424;10.840;2023-05-07T04:15:30;8.90;;;8.10;;
64868;SDS011;51349;52.424;10.840;2023-05-07T04:20:30;9.50;;;8.63;;
64868;SDS011;51349;52.424;10.840;2023-05-07T04:25:36;9.90;;;9.10;;
64868;SDS011;51349;52.424;10.840;2023-05-07T04:30:37;9.13;;;8.43;;
64868;SDS011;51349;52.424;10.840;2023-05-07T04:35:37;9.00;;;8.30;;
64868;SDS011;51349;52.424;10.840;2023-05-07T04:40:38;8.80;;;8.00;;
64868;SDS011;51349;52.424;10.840;2023-05-07T04:45:39;9.30;;;8.57;;
64868;SDS011;51349;52.424;10.840;2023-05-07T04:50:41;9.70;;;8.90;;
64868;SDS011;51349;52.424;10.840;2023-05-07T04:55:42;10.85;;;9.95;;
64868;SDS011;51349;52.424;10.840;2023-05-07T05:00:42;10.40;;;9.50;;
64868;SDS011;51349;52.424;10.840;2023-05-07T05:05:43;10.43;;;9.53;;
64868;SDS011;51349;52.424;10.840;2023-05-07T05:10:44;11.00;;;9.93;;
64868;SDS011;51349;52.424;10.840;2023-05-07T05:15:45;11.00;;;10.00;;
64868;SDS011;51349;52.424;10.840;2023-05-07T05:20:45;11.07;;;10.07;;
64868;SDS011;51349;52.424;10.840;2023-05-07T05:25:46;10.80;;;9.80;;
64868;SDS011;51349;52.424;10.840;2023-05-07T05:30:47;11.70;;;10.60;;
64868;SDS011;51349;52.424;10.840;2023-05-07T05:35:47;10.97;;;9.87;;
64868;SDS011;51349;52.424;10.840;2023-05-07T05:40:49;11.73;;;10.70;;
64868;SDS011;51349;52.424;10.840;2023-05-07T05:45:50;12.30;;;11.10;;
64868;SDS011;51349;52.424;10.840;2023-05-07T05:50:50;10.73;;;9.73;;
64868;SDS011;51349;52.424;10.840;2023-05-07T05:55:51;11.37;;;10.27;;
64868;SDS011;51349;52.424;10.840;2023-05-07T06:00:51;11.80;;;10.67;;
64868;SDS011;51349;52.424;10.840;2023-05-07T06:05:53;11.30;;;10.30;;
64868;SDS011;51349;52.424;10.840;2023-05-07T06:10:53;11.70;;;10.53;;
64868;SDS011;51349;52.424;10.840;2023-05-07T06:15:54;11.03;;;9.93;;
64868;SDS011;51349;52.424;10.840;2023-05-07T06:20:55;11.97;;;10.83;;
64868;SDS011;51349;52.424;10.840;2023-05-07T06:25:56;12.60;;;11.30;;
64868;SDS011;51349;52.424;10.840;2023-05-07T06:31:10;12.10;;;10.93;;
64868;SDS011;51349;52.424;10.840;2023-05-07T06:36:17;11.00;;;10.00;;
64868;SDS011;51349;52.424;10.840;2023-05-07T06:41:17;13.20;;;11.57;;
64868;SDS011;51349;52.424;10.840;2023-05-07T06:46:18;13.07;;;10.60;;
64868;SDS011;51349;52.424;10.840;2023-05-07T06:51:19;11.02;;;9.93;;
64868;SDS011;51349;52.424;10.840;2023-05-07T06:56:19;11.40;;;10.20;;
64868;SDS011;51349;52.424;10.840;2023-05-07T07:01:21;9.40;;;8.50;;
64868;SDS011;51349;52.424;10.840;2023-05-07T07:06:21;10.20;;;9.20;;
64868;SDS011;51349;52.424;10.840;2023-05-07T07:11:22;10.23;;;9.23;;
64868;SDS011;51349;52.424;10.840;2023-05-07T07:16:22;9.00;;;8.20;;
64868;SDS011;51349;52.424;10.840;2023-05-07T07:21:23;11.02;;;10.02;;
64868;SDS011;51349;52.424;10.840;2023-05-07T07:26:24;9.27;;;8.48;;
64868;SDS011;51349;52.424;10.840;2023-05-07T07:31:24;9.10;;;8.30;;
64868;SDS011;51349;52.424;10.840;2023-05-07T07:36:25;9.85;;;8.93;;
64868;SDS011;51349;52.424;10.840;2023-05-07T07:41:26;10.30;;;9.40;;
64868;SDS011;51349;52.424;10.840;2023-05-07T07:46:27;10.07;;;9.13;;
64868;SDS011;51349;52.424;10.840;2023-05-07T07:51:27;9.35;;;8.45;;
64868;SDS011;51349;52.424;10.840;2023-05-07T07:56:28;10.60;;;9.70;;
64868;SDS011;51349;52.424;10.840;2023-05-07T08:01:29;9.00;;;8.20;;
64868;SDS011;51349;52.424;10.840;2023-05-07T08:06:30;8.30;;;7.50;;
64868;SDS011;51349;52.424;10.840;2023-05-07T08:11:31;7.85;;;7.25;;
64868;SDS011;51349;52.424;10.840;2023-05-07T08:16:31;7.45;;;6.85;;
64868;SDS011;51349;52.424;10.840;2023-05-07T08:21:32;7.53;;;6.90;;
64868;SDS011;51349;52.424;10.840;2023-05-07T08:26:33;7.40;;;6.80;;
64868;SDS011;51349;52.424;10.840;2023-05-07T08:31:33;6.80;;;6.20;;
64868;SDS011;51349;52.424;10.840;2023-05-07T08:36:34;7.15;;;6.57;;
64868;SDS011;51349;52.424;10.840;2023-05-07T08:41:35;6.90;;;6.40;;
64868;SDS011;51349;52.424;10.840;2023-05-07T08:46:35;6.93;;;6.43;;
64868;SDS011;51349;52.424;10.840;2023-05-07T08:51:36;7.15;;;6.55;;
64868;SDS011;51349;52.424;10.840;2023-05-07T08:56:37;7.85;;;7.15;;
64868;SDS011;51349;52.424;10.840;2023-05-07T09:01:39;7.40;;;6.70;;
64868;SDS011;51349;52.424;10.840;2023-05-07T09:06:40;8.07;;;7.38;;
64868;SDS011;51349;52.424;10.840;2023-05-07T09:11:41;7.07;;;6.47;;
64868;SDS011;51349;52.424;10.840;2023-05-07T09:16:42;8.27;;;7.57;;
64868;SDS011;51349;52.424;10.840;2023-05-07T09:21:43;7.80;;;7.10;;
64868;SDS011;51349;52.424;10.840;2023-05-07T09:26:44;8.15;;;7.45;;
64868;SDS011;51349;52.424;10.840;2023-05-07T09:31:45;8.68;;;7.97;;
64868;SDS011;51349;52.424;10.840;2023-05-07T09:36:45;8.80;;;8.00;;
64868;SDS011;51349;52.424;10.840;2023-05-07T09:41:47;7.53;;;6.97;;
64868;SDS011;51349;52.424;10.840;2023-05-07T09:46:52;8.30;;;7.60;;
64868;SDS011;51349;52.424;10.840;2023-05-07T09:51:55;7.40;;;6.80;;
64868;SDS011;51349;52.424;10.840;2023-05-07T09:56:59;7.80;;;7.20;;
64868;SDS011;51349;52.424;10.840;2023-05-07T10:02:02;9.32;;;8.52;;
64868;SDS011;51349;52.424;10.840;2023-05-07T10:07:04;8.70;;;8.00;;
64868;SDS011;51349;52.424;10.840;2023-05-07T10:12:05;8.40;;;7.78;;
64868;SDS011;51349;52.424;10.840;2023-05-07T10:17:06;10.80;;;9.45;;
64868;SDS011;51349;52.424;10.840;2023-05-07T10:22:07;9.95;;;8.93;;
64868;SDS011;51349;52.424;10.840;2023-05-07T10:27:10;8.98;;;8.27;;
64868;SDS011;51349;52.424;10.840;2023-05-07T10:37:40;9.60;;;8.90;;
64868;SDS011;51349;52.424;10.840;2023-05-07T10:42:57;9.38;;;8.68;;
64868;SDS011;51349;52.424;10.840;2023-05-07T10:48:07;9.82;;;8.93;;
64868;SDS011;51349;52.424;10.840;2023-05-07T11:03:22;8.27;;;7.57;;
64868;SDS011;51349;52.424;10.840;2023-05-07T11:08:22;8.25;;;7.55;;
64868;SDS011;51349;52.424;10.840;2023-05-07T11:18:47;7.40;;;6.88;;
64868;SDS011;51349;52.424;10.840;2023-05-07T11:28:50;7.68;;;6.97;;
64868;SDS011;51349;52.424;10.840;2023-05-07T11:33:53;8.07;;;7.22;;
64868;SDS011;51349;52.424;10.840;2023-05-07T11:38:54;7.43;;;6.82;;
64868;SDS011;51349;52.424;10.840;2023-05-07T11:43:56;7.57;;;6.93;;
64868;SDS011;51349;52.424;10.840;2023-05-07T11:48:58;7.57;;;6.88;;
64868;SDS011;51349;52.424;10.840;2023-05-07T11:54:03;8.02;;;7.32;;
64868;SDS011;51349;52.424;10.840;2023-05-07T11:59:08;7.13;;;6.53;;
64868;SDS011;51349;52.424;10.840;2023-05-07T12:04:09;7.35;;;6.82;;
64868;SDS011;51349;52.424;10.840;2023-05-07T12:09:10;7.90;;;7.22;;
64868;SDS011;51349;52.424;10.840;2023-05-07T12:14:11;6.70;;;6.30;;
64868;SDS011;51349;52.424;10.840;2023-05-07T12:19:12;7.40;;;6.70;;
64868;SDS011;51349;52.424;10.840;2023-05-07T12:24:16;7.78;;;7.05;;
64868;SDS011;51349;52.424;10.840;2023-05-07T12:29:17;7.20;;;6.70;;
64868;SDS011;51349;52.424;10.840;2023-05-07T12:34:22;7.28;;;6.78;;
64868;SDS011;51349;52.424;10.840;2023-05-07T12:39:23;6.13;;;5.53;;
64868;SDS011;51349;52.424;10.840;2023-05-07T12:44:24;6.55;;;6.05;;
64868;SDS011;51349;52.424;10.840;2023-05-07T12:49:28;6.68;;;6.05;;
64868;SDS011;51349;52.424;10.840;2023-05-07T12:54:32;6.40;;;5.90;;
64868;SDS011;51349;52.424;10.840;2023-05-07T12:59:36;6.13;;;5.63;;
64868;SDS011;51349;52.424;10.840;2023-05-07T13:04:37;6.93;;;6.43;;
64868;SDS011;51349;52.424;10.840;2023-05-07T13:09:38;5.90;;;5.40;;
64868;SDS011;51349;52.424;10.840;2023-05-07T13:14:39;6.20;;;5.80;;
64868;SDS011;51349;52.424;10.840;2023-05-07T13:19:39;6.20;;;5.80;;
64868;SDS011;51349;52.424;10.840;2023-05-07T13:24:40;6.70;;;6.20;;
64868;SDS011;51349;52.424;10.840;2023-05-07T13:29:43;6.22;;;5.80;;
64868;SDS011;51349;52.424;10.840;2023-05-07T13:34:43;6.03;;;5.53;;
64868;SDS011;51349;52.424;10.840;2023-05-07T13:39:44;6.70;;;6.10;;
64868;SDS011;51349;52.424;10.840;2023-05-07T13:44:45;5.95;;;5.55;;
64868;SDS011;51349;52.424;10.840;2023-05-07T13:49:46;5.55;;;5.15;;
64868;SDS011;51349;52.424;10.840;2023-05-07T13:54:49;5.70;;;5.30;;
64868;SDS011;51349;52.424;10.840;2023-05-07T13:59:52;5.25;;;4.90;;
64868;SDS011;51349;52.424;10.840;2023-05-07T14:04:52;5.05;;;4.70;;
64868;SDS011;51349;52.424;10.840;2023-05-07T14:09:53;5.90;;;5.40;;
64868;SDS011;51349;52.424;10.840;2023-05-07T14:14:55;5.80;;;5.40;;
64868;SDS011;51349;52.424;10.840;2023-05-07T14:19:56;5.53;;;5.07;;
64868;SDS011;51349;52.424;10.840;2023-05-07T14:24:57;5.07;;;4.75;;
64868;SDS011;51349;52.424;10.840;2023-05-07T14:29:58;4.90;;;4.60;;
64868;SDS011;51349;52.424;10.840;2023-05-07T14:34:59;5.88;;;5.47;;
64868;SDS011;51349;52.424;10.840;2023-05-07T14:39:59;5.53;;;5.15;;
64868;SDS011;51349;52.424;10.840;2023-05-07T14:45:00;5.68;;;5.30;;
64868;SDS011;51349;52.424;10.840;2023-05-07T14:50:01;5.05;;;4.75;;
64868;SDS011;51349;52.424;10.840;2023-05-07T14:55:02;5.50;;;5.03;;
64868;SDS011;51349;52.424;10.840;2023-05-07T15:00:03;5.40;;;5.00;;
64868;SDS011;51349;52.424;10.840;2023-05-07T15:05:04;5.95;;;5.55;;
64868;SDS011;51349;52.424;10.840;2023-05-07T15:10:06;6.65;;;6.05;;
64868;SDS011;51349;52.424;10.840;2023-05-07T15:15:07;5.63;;;5.13;;
64868;SDS011;51349;52.424;10.840;2023-05-07T15:20:08;5.32;;;4.80;;
64868;SDS011;51349;52.424;10.840;2023-05-07T15:25:10;4.90;;;4.50;;
64868;SDS011;51349;52.424;10.840;2023-05-07T15:30:11;5.15;;;4.80;;
64868;SDS011;51349;52.424;10.840;2023-05-07T15:35:14;5.30;;;4.90;;
64868;SDS011;51349;52.424;10.840;2023-05-07T15:40:14;4.90;;;4.60;;
64868;SDS011;51349;52.424;10.840;2023-05-07T15:45:15;4.80;;;4.50;;
64868;SDS011;51349;52.424;10.840;2023-05-07T15:50:16;5.13;;;4.72;;
64868;SDS011;51349;52.424;10.840;2023-05-07T15:55:16;4.70;;;4.40;;
64868;SDS011;51349;52.424;10.840;2023-05-07T16:00:17;5.20;;;4.70;;
64868;SDS011;51349;52.424;10.840;2023-05-07T16:05:18;5.80;;;5.30;;
64868;SDS011;51349;52.424;10.840;2023-05-07T16:10:19;4.90;;;4.60;;
64868;SDS011;51349;52.424;10.840;2023-05-07T16:15:19;4.95;;;4.53;;
64868;SDS011;51349;52.424;10.840;2023-05-07T16:20:20;4.95;;;4.60;;
64868;SDS011;51349;52.424;10.840;2023-05-07T16:25:22;4.95;;;4.55;;
64868;SDS011;51349;52.424;10.840;2023-05-07T16:30:23;4.93;;;4.63;;
64868;SDS011;51349;52.424;10.840;2023-05-07T16:35:23;4.75;;;4.45;;
64868;SDS011;51349;52.424;10.840;2023-05-07T16:40:24;5.63;;;4.75;;
64868;SDS011;51349;52.424;10.840;2023-05-07T16:45:25;4.63;;;4.38;;
64868;SDS011;51349;52.424;10.840;2023-05-07T16:50:25;5.25;;;4.95;;
64868;SDS011;51349;52.424;10.840;2023-05-07T16:55:26;5.38;;;4.97;;
64868;SDS011;51349;52.424;10.840;2023-05-07T17:00:26;5.72;;;5.32;;
64868;SDS011;51349;52.424;10.840;2023-05-07T17:05:27;5.70;;;5.38;;
64868;SDS011;51349;52.424;10.840;2023-05-07T17:10:28;5.40;;;5.10;;
64868;SDS011;51349;52.424;10.840;2023-05-07T17:15:28;6.07;;;5.57;;
64868;SDS011;51349;52.424;10.840;2023-05-07T17:20:29;4.93;;;4.63;;
64868;SDS011;51349;52.424;10.840;2023-05-07T17:25:33;6.10;;;5.70;;
64868;SDS011;51349;52.424;10.840;2023-05-07T17:30:34;7.10;;;6.50;;
64868;SDS011;51349;52.424;10.840;2023-05-07T17:35:34;5.72;;;5.32;;
64868;SDS011;51349;52.424;10.840;2023-05-07T17:40:35;5.30;;;4.80;;
64868;SDS011;51349;52.424;10.840;2023-05-07T17:45:36;5.28;;;4.97;;
64868;SDS011;51349;52.424;10.840;2023-05-07T17:50:36;5.30;;;5.00;;
64868;SDS011;51349;52.424;10.840;2023-05-07T17:55:46;5.20;;;4.90;;
64868;SDS011;51349;52.424;10.840;2023-05-07T18:00:47;5.13;;;4.72;;
64868;SDS011;51349;52.424;10.840;2023-05-07T18:05:49;5.95;;;5.07;;
64868;SDS011;51349;52.424;10.840;2023-05-07T18:10:50;5.40;;;4.90;;
64868;SDS011;51349;52.424;10.840;2023-05-07T18:15:50;4.78;;;4.47;;
64868;SDS011;51349;52.424;10.840;2023-05-07T18:20:51;4.90;;;4.60;;
64868;SDS011;51349;52.424;10.840;2023-05-07T18:25:58;4.70;;;4.40;;
64868;SDS011;51349;52.424;10.840;2023-05-07T18:30:58;4.70;;;4.40;;
64868;SDS011;51349;52.424;10.840;2023-05-07T18:35:59;4.57;;;4.28;;
64868;SDS011;51349;52.424;10.840;2023-05-07T18:41:01;4.70;;;4.15;;
64868;SDS011;51349;52.424;10.840;2023-05-07T18:46:02;5.50;;;5.10;;
64868;SDS011;51349;52.424;10.840;2023-05-07T18:51:03;4.90;;;4.60;;
64868;SDS011;51349;52.424;10.840;2023-05-07T18:56:04;4.70;;;4.30;;
64868;SDS011;51349;52.424;10.840;2023-05-07T19:01:06;4.47;;;4.18;;
64868;SDS011;51349;52.424;10.840;2023-05-07T19:06:07;4.70;;;4.40;;
64868;SDS011;51349;52.424;10.840;2023-05-07T19:11:07;5.55;;;5.15;;
64868;SDS011;51349;52.424;10.840;2023-05-07T19:16:08;5.32;;;4.28;;
64868;SDS011;51349;52.424;10.840;2023-05-07T19:21:11;4.40;;;4.10;;
64868;SDS011;51349;52.424;10.840;2023-05-07T19:26:12;4.35;;;4.05;;
64868;SDS011;51349;52.424;10.840;2023-05-07T19:31:19;4.45;;;4.05;;
64868;SDS011;51349;52.424;10.840;2023-05-07T19:36:21;4.85;;;4.45;;
64868;SDS011;51349;52.424;10.840;2023-05-07T19:41:21;4.63;;;4.22;;
64868;SDS011;51349;52.424;10.840;2023-05-07T19:46:22;4.90;;;4.50;;
64868;SDS011;51349;52.424;10.840;2023-05-07T19:51:25;5.03;;;4.72;;
64868;SDS011;51349;52.424;10.840;2023-05-07T19:56:31;5.30;;;4.90;;
64868;SDS011;51349;52.424;10.840;2023-05-07T20:01:31;5.97;;;5.53;;
64868;SDS011;51349;52.424;10.840;2023-05-07T20:06:32;5.32;;;4.88;;
64868;SDS011;51349;52.424;10.840;2023-05-07T20:11:33;5.70;;;5.30;;
64868;SDS011;51349;52.424;10.840;2023-05-07T20:16:35;5.70;;;5.10;;
64868;SDS011;51349;52.424;10.840;2023-05-07T20:21:35;5.32;;;4.93;;
64868;SDS011;51349;52.424;10.840;2023-05-07T20:26:36;5.60;;;5.10;;
64868;SDS011;51349;52.424;10.840;2023-05-07T20:31:38;5.90;;;5.40;;
64868;SDS011;51349;52.424;10.840;2023-05-07T20:36:40;6.28;;;5.78;;
64868;SDS011;51349;52.424;10.840;2023-05-07T20:41:41;5.90;;;5.40;;
64868;SDS011;51349;52.424;10.840;2023-05-07T20:46:43;5.63;;;5.13;;
64868;SDS011;51349;52.424;10.840;2023-05-07T20:51:44;5.80;;;5.40;;
64868;SDS011;51349;52.424;10.840;2023-05-07T20:56:44;5.50;;;5.10;;
64868;SDS011;51349;52.424;10.840;2023-05-07T21:01:45;5.72;;;5.32;;
64868;SDS011;51349;52.424;10.840;2023-05-07T21:06:46;5.53;;;5.05;;
64868;SDS011;51349;52.424;10.840;2023-05-07T21:11:46;6.15;;;5.65;;
64868;SDS011;51349;52.424;10.840;2023-05-07T21:16:47;5.43;;;5.03;;
64868;SDS011;51349;52.424;10.840;2023-05-07T21:21:48;5.60;;;4.93;;
64868;SDS011;51349;52.424;10.840;2023-05-07T21:26:48;4.95;;;4.55;;
64868;SDS011;51349;52.424;10.840;2023-05-07T21:31:50;4.88;;;4.57;;
64868;SDS011;51349;52.424;10.840;2023-05-07T21:36:50;5.13;;;4.82;;
64868;SDS011;51349;52.424;10.840;2023-05-07T21:41:51;5.05;;;4.65;;
64868;SDS011;51349;52.424;10.840;2023-05-07T21:46:52;6.35;;;5.90;;
64868;SDS011;51349;52.424;10.840;2023-05-07T21:51:52;5.25;;;4.90;;
64868;SDS011;51349;52.424;10.840;2023-05-07T21:56:53;5.40;;;5.00;;
64868;SDS011;51349;52.424;10.840;2023-05-07T22:01:53;5.68;;;5.28;;
64868;SDS011;51349;52.424;10.840;2023-05-07T22:06:54;5.03;;;4.68;;
64868;SDS011;51349;52.424;10.840;2023-05-07T22:11:55;5.07;;;4.78;;
64868;SDS011;51349;52.424;10.840;2023-05-07T22:16:55;5.03;;;4.73;;
64868;SDS011;51349;52.424;10.840;2023-05-07T22:21:56;5.40;;;5.00;;
64868;SDS011;51349;52.424;10.840;2023-05-07T22:26:57;5.50;;;5.10;;
64868;SDS011;51349;52.424;10.840;2023-05-07T22:31:57;5.80;;;5.30;;
64868;SDS011;51349;52.424;10.840;2023-05-07T22:36:58;5.93;;;4.90;;
64868;SDS011;51349;52.424;10.840;2023-05-07T22:41:59;5.45;;;5.05;;
64868;SDS011;51349;52.424;10.840;2023-05-07T22:47:01;5.73;;;5.33;;
64868;SDS011;51349;52.424;10.840;2023-05-07T22:52:01;5.33;;;4.93;;
64868;SDS011;51349;52.424;10.840;2023-05-07T22:57:02;5.40;;;5.00;;
64868;SDS011;51349;52.424;10.840;2023-05-07T23:02:03;5.57;;;5.17;;
64868;SDS011;51349;52.424;10.840;2023-05-07T23:07:04;5.60;;;5.20;;
64868;SDS011;51349;52.424;10.840;2023-05-07T23:12:05;5.77;;;5.33;;
64868;SDS011;51349;52.424;10.840;2023-05-07T23:17:06;5.60;;;5.10;;
64868;SDS011;51349;52.424;10.840;2023-05-07T23:22:07;5.23;;;4.90;;
64868;SDS011;51349;52.424;10.840;2023-05-07T23:27:09;5.20;;;4.90;;
64868;SDS011;51349;52.424;10.840;2023-05-07T23:32:10;5.13;;;4.63;;
64868;SDS011;51349;52.424;10.840;2023-05-07T23:37:10;6.07;;;5.17;;
64868;SDS011;51349;52.424;10.840;2023-05-07T23:42:11;5.17;;;4.80;;
64868;SDS011;51349;52.424;10.840;2023-05-07T23:47:12;5.63;;;5.23;;
64868;SDS011;51349;52.424;10.840;2023-05-07T23:52:13;6.00;;;5.50;;
64868;SDS011;51349;52.424;10.840;2023-05-07T23:57:13;6.30;;;5.80;;
